createdAt,value
2023-01-07T00:00:50.613Z,98541.97
2023-01-07T00:03:17.411Z,98532.06
2023-01-07T00:05:43.962Z,98539.53
2023-01-07T00:08:10.724Z,98536.84
2023-01-07T00:10:37.190Z,98533.38
2023-01-07T00:13:03.683Z,98542.47
2023-01-07T00:15:30.128Z,98544.34
2023-01-07T00:17:56.620Z,98540.88
2023-01-07T00:20:23.055Z,98541.13
2023-01-07T00:22:51.068Z,98537.13
2023-01-07T00:25:17.526Z,98541.09
2023-01-07T00:27:43.987Z,98545.63
2023-01-07T00:30:11.065Z,98536.03
2023-01-07T00:32:56.023Z,98536.03
2023-01-07T00:35:25.247Z,98535.22
2023-01-07T00:37:52.708Z,98530.16
2023-01-07T00:40:19.615Z,98531.22
2023-01-07T00:42:55.158Z,98526.69
2023-01-07T00:45:22.412Z,98531.22
2023-01-07T00:47:49.211Z,98520.00
2023-01-07T00:50:15.667Z,98529.88
2023-01-07T00:52:42.146Z,98523.75
2023-01-07T00:55:10.965Z,98527.22
2023-01-07T00:57:37.459Z,98524.50
2023-01-07T01:00:04.111Z,98521.53
2023-01-07T01:02:30.599Z,98516.19
2023-01-07T01:04:57.075Z,98517.50
2023-01-07T01:07:23.545Z,98503.91
2023-01-07T01:09:50.236Z,98496.94
2023-01-07T01:12:16.703Z,98505.50
2023-01-07T01:14:43.220Z,98498.56
2023-01-07T01:17:09.673Z,98496.94
2023-01-07T01:19:36.144Z,98507.88
2023-01-07T01:22:02.618Z,98500.94
2023-01-07T01:24:29.213Z,98501.44
2023-01-07T01:26:55.662Z,98500.13
2023-01-07T01:29:22.183Z,98502.22
2023-01-07T01:31:48.710Z,98494.19
2023-01-07T01:34:15.244Z,98494.75
2023-01-07T01:36:41.773Z,98493.13
2023-01-07T01:39:08.264Z,98496.06
2023-01-07T01:41:34.721Z,98493.91
2023-01-07T01:44:01.201Z,98500.56
2023-01-07T01:46:34.994Z,98506.97
2023-01-07T01:49:06.834Z,98502.94
2023-01-07T01:51:36.088Z,98503.19
2023-01-07T01:54:07.522Z,98498.94
2023-01-07T01:56:35.599Z,98499.41
2023-01-07T01:59:05.394Z,98498.63
2023-01-07T02:01:33.725Z,98499.91
2023-01-07T02:04:01.011Z,98492.72
2023-01-07T02:06:29.542Z,98494.06
2023-01-07T02:08:56.076Z,98497.78
2023-01-07T02:11:31.907Z,98493.75
2023-01-07T02:14:05.976Z,98493.22
2023-01-07T02:16:40.481Z,98498.28
2023-01-07T02:19:32.503Z,98500.38
2023-01-07T02:22:28.625Z,98495.31
2023-01-07T02:25:16.913Z,98495.06
2023-01-07T02:28:15.613Z,98489.19
2023-01-07T02:30:54.028Z,98496.38
2023-01-07T02:34:02.539Z,98486.00
2023-01-07T02:36:55.675Z,98481.97
2023-01-07T02:40:04.161Z,98482.25
2023-01-07T02:43:04.213Z,98486.22
2023-01-07T02:45:32.265Z,98475.03
2023-01-07T02:48:07.191Z,98477.38
2023-01-07T02:50:33.671Z,98479.78
2023-01-07T02:53:00.146Z,98473.66
2023-01-07T02:55:40.266Z,98473.13
2023-01-07T02:58:29.006Z,98467.25
2023-01-07T03:01:34.051Z,98466.69
2023-01-07T03:04:20.855Z,98459.78
2023-01-07T03:06:54.319Z,98462.44
2023-01-07T03:09:41.461Z,98458.16
2023-01-07T03:12:23.765Z,98454.97
2023-01-07T03:15:29.152Z,98458.13
2023-01-07T03:18:05.231Z,98453.34
2023-01-07T03:20:33.013Z,98452.56
2023-01-07T03:22:59.499Z,98452.56
2023-01-07T03:25:26.927Z,98441.34
2023-01-07T03:27:53.386Z,98449.34
2023-01-07T03:30:19.866Z,98444.28
2023-01-07T03:33:06.927Z,98440.81
2023-01-07T03:35:33.459Z,98436.28
2023-01-07T03:38:00.814Z,98443.97
2023-01-07T03:40:27.329Z,98440.78
2023-01-07T03:42:54.075Z,98428.53
2023-01-07T03:45:24.431Z,98427.69
2023-01-07T03:47:52.222Z,98424.25
2023-01-07T03:50:19.077Z,98424.25
2023-01-07T03:52:45.808Z,98423.44
2023-01-07T03:55:12.276Z,98430.63
2023-01-07T03:57:39.038Z,98422.91
2023-01-07T04:00:06.745Z,98429.31
2023-01-07T04:02:33.221Z,98416.00
2023-01-07T04:04:59.659Z,98409.03
2023-01-07T04:07:26.111Z,98411.16
2023-01-07T04:09:52.595Z,98410.38
2023-01-07T04:12:19.124Z,98403.16
2023-01-07T04:14:45.589Z,98406.09
2023-01-07T04:17:12.067Z,98402.66
2023-01-07T04:19:38.997Z,98393.03
2023-01-07T04:22:09.630Z,98398.63
2023-01-07T04:24:37.108Z,98389.56
2023-01-07T04:27:03.683Z,98388.25
2023-01-07T04:29:30.508Z,98388.47
2023-01-07T04:31:56.955Z,98382.34
2023-01-07T04:34:23.601Z,98375.44
2023-01-07T04:36:50.094Z,98379.41
2023-01-07T04:39:17.794Z,98376.75
2023-01-07T04:41:44.459Z,98368.22
2023-01-07T04:44:11.003Z,98367.41
2023-01-07T04:46:37.712Z,98365.03
2023-01-07T04:49:04.177Z,98361.53
2023-01-07T04:51:30.635Z,98366.31
2023-01-07T04:53:58.350Z,98359.16
2023-01-07T04:56:24.805Z,98362.88
2023-01-07T04:58:51.302Z,98363.13
2023-01-07T05:01:18.181Z,98355.34
2023-01-07T05:03:44.704Z,98357.22
2023-01-07T05:06:11.214Z,98361.50
2023-01-07T05:08:37.678Z,98359.66
2023-01-07T05:11:05.179Z,98357.22
2023-01-07T05:13:31.978Z,98355.63
2023-01-07T05:15:58.511Z,98354.81
2023-01-07T05:18:24.983Z,98351.38
2023-01-07T05:20:51.471Z,98353.47
2023-01-07T05:23:17.921Z,98351.59
2023-01-07T05:25:44.410Z,98354.78
2023-01-07T05:28:11.980Z,98356.66
2023-01-07T05:30:39.395Z,98350.53
2023-01-07T05:33:07.285Z,98353.69
2023-01-07T05:35:34.730Z,98350.22
2023-01-07T05:38:01.233Z,98341.44
2023-01-07T05:40:27.693Z,98347.56
2023-01-07T05:42:54.243Z,98345.16
2023-01-07T05:45:21.820Z,98345.41
2023-01-07T05:47:48.506Z,98357.13
2023-01-07T05:50:15.040Z,98350.72
2023-01-07T05:52:41.501Z,98341.66
2023-01-07T05:55:08.604Z,98345.09
2023-01-07T05:57:35.056Z,98342.72
2023-01-07T06:00:01.507Z,98342.72
2023-01-07T06:02:27.981Z,98351.50
2023-01-07T06:04:54.512Z,98349.94
2023-01-07T06:07:20.976Z,98347.59
2023-01-07T06:09:47.421Z,98344.97
2023-01-07T06:12:13.878Z,98339.72
2023-01-07T06:14:40.318Z,98345.63
2023-01-07T06:17:07.106Z,98341.94
2023-01-07T06:19:33.587Z,98341.16
2023-01-07T06:22:00.054Z,98341.47
2023-01-07T06:24:26.706Z,98342.00
2023-01-07T06:26:53.186Z,98341.72
2023-01-07T06:29:19.652Z,98334.03
2023-01-07T06:31:46.104Z,98335.94
2023-01-07T06:34:12.561Z,98333.53
2023-01-07T06:36:38.999Z,98338.31
2023-01-07T06:39:05.590Z,98334.06
2023-01-07T06:41:32.051Z,98334.06
2023-01-07T06:43:58.509Z,98328.50
2023-01-07T06:46:25.237Z,98339.44
2023-01-07T06:48:51.743Z,98334.69
2023-01-07T06:51:18.248Z,98337.91
2023-01-07T06:53:44.726Z,98338.44
2023-01-07T06:56:11.206Z,98329.41
2023-01-07T06:58:37.665Z,98333.94
2023-01-07T07:01:07.724Z,98331.56
2023-01-07T07:03:34.228Z,98331.56
2023-01-07T07:06:00.740Z,98329.69
2023-01-07T07:08:27.205Z,98331.78
2023-01-07T07:10:53.663Z,98326.47
2023-01-07T07:13:20.102Z,98329.94
2023-01-07T07:15:46.582Z,98319.28
2023-01-07T07:18:13.107Z,98321.94
2023-01-07T07:20:40.586Z,98329.94
2023-01-07T07:23:07.051Z,98322.22
2023-01-07T07:25:33.525Z,98322.50
2023-01-07T07:27:59.986Z,98320.38
2023-01-07T07:30:46.252Z,98314.81
2023-01-07T07:33:14.807Z,98322.53
2023-01-07T07:35:41.298Z,98315.59
2023-01-07T07:38:07.758Z,98317.72
2023-01-07T07:40:34.210Z,98312.13
2023-01-07T07:43:10.931Z,98306.00
2023-01-07T07:45:39.363Z,98307.88
2023-01-07T07:48:07.281Z,98307.88
2023-01-07T07:50:34.069Z,98303.88
2023-01-07T07:53:00.526Z,98308.19
2023-01-07T07:55:27.050Z,98294.63
2023-01-07T07:57:58.160Z,98301.81
2023-01-07T08:00:24.750Z,98287.97
2023-01-07T08:02:51.542Z,98293.03
2023-01-07T08:05:18.059Z,98283.19
2023-01-07T08:07:44.555Z,98285.84
2023-01-07T08:10:11.032Z,98284.78
2023-01-07T08:12:38.331Z,98292.78
2023-01-07T08:15:06.173Z,98289.31
2023-01-07T08:17:32.640Z,98290.91
2023-01-07T08:19:59.137Z,98292.78
2023-01-07T08:22:25.574Z,98291.97
2023-01-07T08:24:52.047Z,98294.38
2023-01-07T08:27:18.504Z,98287.44
2023-01-07T08:29:45.026Z,98288.25
2023-01-07T08:32:11.475Z,98290.09
2023-01-07T08:34:37.957Z,98285.84
2023-01-07T08:37:04.439Z,98283.69
2023-01-07T08:39:30.921Z,98274.34
2023-01-07T08:41:57.378Z,98286.06
2023-01-07T08:44:23.872Z,98284.94
2023-01-07T08:46:50.396Z,98282.03
2023-01-07T08:49:16.892Z,98277.25
2023-01-07T08:51:43.384Z,98283.16
2023-01-07T08:54:09.895Z,98280.78
2023-01-07T08:56:36.347Z,98277.88
2023-01-07T08:59:02.829Z,98276.78
2023-01-07T09:01:29.412Z,98276.00
2023-01-07T09:03:56.007Z,98275.75
2023-01-07T09:06:23.144Z,98274.44
2023-01-07T09:08:49.850Z,98269.34
2023-01-07T09:11:16.363Z,98273.09
2023-01-07T09:13:42.824Z,98261.91
2023-01-07T09:16:09.382Z,98258.97
2023-01-07T09:18:35.910Z,98256.56
2023-01-07T09:21:02.392Z,98261.34
2023-01-07T09:23:28.848Z,98258.41
2023-01-07T09:25:55.342Z,98253.88
2023-01-07T09:28:21.798Z,98257.09
2023-01-07T09:30:48.280Z,98251.22
2023-01-07T09:33:14.742Z,98248.81
2023-01-07T09:35:41.199Z,98261.91
2023-01-07T09:38:07.655Z,98255.22
2023-01-07T09:40:41.246Z,98249.09
2023-01-07T09:43:58.820Z,98243.75
2023-01-07T09:46:28.047Z,98242.69
2023-01-07T09:48:57.809Z,98238.69
2023-01-07T09:51:29.491Z,98250.41
2023-01-07T09:53:57.821Z,98248.56
2023-01-07T09:56:28.942Z,98243.47
2023-01-07T09:58:56.191Z,98242.94
2023-01-07T10:01:31.482Z,98237.88
2023-01-07T10:04:08.387Z,98245.63
2023-01-07T10:06:51.263Z,98232.03
2023-01-07T10:09:24.598Z,98237.09
2023-01-07T10:12:03.077Z,98228.28
2023-01-07T10:15:02.130Z,98225.88
2023-01-07T10:17:36.506Z,98220.53
2023-01-07T10:20:26.593Z,98213.38
2023-01-07T10:22:55.869Z,98213.88
2023-01-07T10:25:26.745Z,98212.81
2023-01-07T10:27:53.848Z,98220.84
2023-01-07T10:30:23.305Z,98220.81
2023-01-07T10:32:50.095Z,98217.88
2023-01-07T10:35:19.172Z,98214.13
2023-01-07T10:37:45.660Z,98207.22
2023-01-07T10:40:30.174Z,98206.66
2023-01-07T10:43:16.521Z,98193.09
2023-01-07T10:46:04.522Z,98202.69
2023-01-07T10:48:59.814Z,98190.16
2023-01-07T10:52:00.690Z,98192.84
2023-01-07T10:55:02.620Z,98189.34
2023-01-07T10:57:29.382Z,98198.06
2023-01-07T10:59:58.488Z,98187.16
2023-01-07T11:02:28.122Z,98188.00
2023-01-07T11:04:55.299Z,98190.94
2023-01-07T11:07:36.815Z,98184.81
2023-01-07T11:10:04.344Z,98180.00
2023-01-07T11:12:53.689Z,98175.19
2023-01-07T11:15:38.000Z,98173.06
2023-01-07T11:18:05.658Z,98164.56
2023-01-07T11:20:50.804Z,98166.94
2023-01-07T11:23:31.134Z,98156.81
2023-01-07T11:26:12.440Z,98148.81
2023-01-07T11:29:15.866Z,98147.75
2023-01-07T11:31:50.431Z,98148.03
2023-01-07T11:34:22.732Z,98136.56
2023-01-07T11:36:49.291Z,98138.44
2023-01-07T11:39:24.250Z,98130.16
2023-01-07T11:41:56.195Z,98125.13
2023-01-07T11:44:22.774Z,98122.72
2023-01-07T11:46:49.500Z,98125.91
2023-01-07T11:49:21.964Z,98107.81
2023-01-07T11:51:49.633Z,98100.06
2023-01-07T11:54:26.737Z,98096.59
2023-01-07T11:56:55.090Z,98085.16
2023-01-07T11:59:28.559Z,98086.22
2023-01-07T12:01:59.565Z,98077.91
2023-01-07T12:04:33.301Z,98072.84
2023-01-07T12:07:01.373Z,98067.78
2023-01-07T12:09:28.682Z,98062.19
2023-01-07T12:11:56.670Z,98059.78
2023-01-07T12:14:27.204Z,98049.13
2023-01-07T12:16:53.932Z,98046.72
2023-01-07T12:19:47.039Z,98045.91
2023-01-07T12:22:22.575Z,98038.19
2023-01-07T12:25:07.507Z,98042.75
2023-01-07T12:27:56.443Z,98027.81
2023-01-07T12:30:43.927Z,98023.00
2023-01-07T12:33:13.446Z,98025.38
2023-01-07T12:35:42.778Z,98012.31
2023-01-07T12:38:16.207Z,98015.00
2023-01-07T12:40:54.212Z,98009.41
2023-01-07T12:43:47.952Z,98007.53
2023-01-07T12:46:16.092Z,97994.78
2023-01-07T12:48:46.859Z,97989.72
2023-01-07T12:51:24.951Z,97992.41
2023-01-07T12:54:12.746Z,97983.84
2023-01-07T12:56:40.939Z,97976.63
2023-01-07T12:59:46.281Z,97962.00
2023-01-07T13:02:33.458Z,97968.13
2023-01-07T13:05:16.431Z,97963.88
2023-01-07T13:07:57.104Z,97967.31
2023-01-07T13:10:39.344Z,97955.88
2023-01-07T13:13:09.840Z,97957.75
2023-01-07T13:15:39.273Z,97945.47
2023-01-07T13:18:11.738Z,97945.75
2023-01-07T13:21:04.446Z,97934.56
2023-01-07T13:23:49.061Z,97929.50
2023-01-07T13:26:25.898Z,97925.25
2023-01-07T13:29:10.245Z,97930.59
2023-01-07T13:31:43.092Z,97925.25
2023-01-07T13:34:37.486Z,97921.53
2023-01-07T13:37:09.917Z,97916.50
2023-01-07T13:39:57.740Z,97912.50
2023-01-07T13:43:10.601Z,97903.44
2023-01-07T13:45:37.100Z,97902.59
2023-01-07T13:48:05.604Z,97904.44
2023-01-07T13:50:35.817Z,97904.19
2023-01-07T13:53:07.767Z,97905.78
2023-01-07T13:55:44.435Z,97898.31
2023-01-07T13:58:29.053Z,97884.72
2023-01-07T14:01:09.225Z,97878.31
2023-01-07T14:03:44.145Z,97880.44
2023-01-07T14:06:23.665Z,97880.44
2023-01-07T14:09:00.200Z,97873.25
2023-01-07T14:11:29.567Z,97874.81
2023-01-07T14:14:20.939Z,97873.25
2023-01-07T14:17:08.927Z,97882.81
2023-01-07T14:19:53.760Z,97881.47
2023-01-07T14:22:41.210Z,97879.63
2023-01-07T14:25:34.897Z,97873.50
2023-01-07T14:28:40.378Z,97878.03
2023-01-07T14:31:06.831Z,97873.50
2023-01-07T14:33:40.137Z,97868.44
2023-01-07T14:36:08.304Z,97867.94
2023-01-07T14:38:34.584Z,97873.53
2023-01-07T14:41:03.827Z,97862.34
2023-01-07T14:43:45.578Z,97858.63
2023-01-07T14:46:34.752Z,97857.09
2023-01-07T14:49:04.040Z,97858.13
2023-01-07T14:51:53.426Z,97857.63
2023-01-07T14:54:25.530Z,97853.09
2023-01-07T14:56:57.959Z,97851.53
2023-01-07T14:59:52.468Z,97846.19
2023-01-07T15:02:44.428Z,97837.13
2023-01-07T15:05:25.900Z,97840.59
2023-01-07T15:08:15.910Z,97837.13
2023-01-07T15:11:01.156Z,97833.63
2023-01-07T15:13:46.167Z,97835.75
2023-01-07T15:16:12.727Z,97827.78
2023-01-07T15:18:51.381Z,97830.94
2023-01-07T15:21:36.098Z,97827.47
2023-01-07T15:24:18.893Z,97819.78
2023-01-07T15:26:47.917Z,97814.16
2023-01-07T15:29:26.420Z,97805.38
2023-01-07T15:31:58.891Z,97806.44
2023-01-07T15:34:27.421Z,97793.38
2023-01-07T15:36:53.887Z,97785.13
2023-01-07T15:39:25.325Z,97787.00
2023-01-07T15:41:53.267Z,97776.34
2023-01-07T15:44:29.316Z,97771.25
2023-01-07T15:46:56.064Z,97775.28
2023-01-07T15:49:25.407Z,97779.00
2023-01-07T15:51:56.919Z,97773.44
2023-01-07T15:54:36.623Z,97766.47
2023-01-07T15:57:09.122Z,97777.94
2023-01-07T15:59:37.833Z,97774.44
2023-01-07T16:02:24.837Z,97780.03
2023-01-07T16:04:53.014Z,97766.13
2023-01-07T16:07:25.718Z,97759.97
2023-01-07T16:09:52.411Z,97754.06
2023-01-07T16:12:20.223Z,97751.38
2023-01-07T16:14:46.658Z,97742.53
2023-01-07T16:17:16.077Z,97736.91
2023-01-07T16:19:42.680Z,97735.34
2023-01-07T16:22:12.957Z,97742.25
2023-01-07T16:24:45.105Z,97738.78
2023-01-07T16:27:11.556Z,97741.75
2023-01-07T16:29:39.890Z,97737.22
2023-01-07T16:32:06.956Z,97735.34
2023-01-07T16:34:33.232Z,97735.84
2023-01-07T16:37:00.077Z,97728.63
2023-01-07T16:39:30.715Z,97731.59
2023-01-07T16:42:15.795Z,97734.50
2023-01-07T16:44:57.656Z,97732.34
2023-01-07T16:47:25.564Z,97736.03
2023-01-07T16:49:59.175Z,97738.66
2023-01-07T16:52:32.763Z,97727.97
2023-01-07T16:54:59.488Z,97724.03
2023-01-07T16:57:40.078Z,97718.94
2023-01-07T17:00:15.885Z,97708.06
2023-01-07T17:02:48.641Z,97714.75
2023-01-07T17:05:18.978Z,97701.97
2023-01-07T17:07:51.758Z,97706.00
2023-01-07T17:10:27.463Z,97710.50
2023-01-07T17:13:15.461Z,97708.38
2023-01-07T17:15:42.534Z,97711.06
2023-01-07T17:18:11.971Z,97704.63
2023-01-07T17:20:45.342Z,97698.25
2023-01-07T17:23:32.327Z,97694.78
2023-01-07T17:26:10.814Z,97688.63
2023-01-07T17:28:43.550Z,97691.31
2023-01-07T17:31:10.071Z,97682.81
2023-01-07T17:33:36.593Z,97690.31
2023-01-07T17:36:03.123Z,97692.72
2023-01-07T17:38:29.616Z,97675.41
2023-01-07T17:40:56.074Z,97674.38
2023-01-07T17:43:36.750Z,97671.22
2023-01-07T17:46:07.449Z,97664.56
2023-01-07T17:48:34.581Z,97661.69
2023-01-07T17:51:01.390Z,97655.75
2023-01-07T17:53:30.393Z,97659.75
2023-01-07T17:55:56.870Z,97653.59
2023-01-07T17:58:33.742Z,97662.03
2023-01-07T18:01:17.427Z,97661.19
2023-01-07T18:03:46.692Z,97648.09
2023-01-07T18:06:18.087Z,97645.97
2023-01-07T18:08:48.136Z,97648.63
2023-01-07T18:11:43.550Z,97645.13
2023-01-07T18:14:13.561Z,97648.09
2023-01-07T18:16:40.444Z,97661.13
2023-01-07T18:19:07.120Z,97653.44
2023-01-07T18:21:33.568Z,97662.50
2023-01-07T18:24:00.056Z,97658.25
2023-01-07T18:26:26.530Z,97655.06
2023-01-07T18:28:53.061Z,97655.06
2023-01-07T18:31:19.633Z,97650.81
2023-01-07T18:33:46.120Z,97650.31
2023-01-07T18:36:12.627Z,97644.16
2023-01-07T18:38:39.264Z,97646.81
2023-01-07T18:41:05.934Z,97643.91
2023-01-07T18:43:32.392Z,97647.66
2023-01-07T18:45:58.930Z,97645.53
2023-01-07T18:48:25.813Z,97646.88
2023-01-07T18:50:52.289Z,97651.22
2023-01-07T18:53:19.137Z,97650.69
2023-01-07T18:55:45.855Z,97653.63
2023-01-07T18:58:13.244Z,97648.31
2023-01-07T19:00:40.092Z,97647.78
2023-01-07T19:03:06.588Z,97631.78
2023-01-07T19:05:33.056Z,97645.06
2023-01-07T19:07:59.508Z,97647.41
2023-01-07T19:10:26.486Z,97649.22
2023-01-07T19:12:53.013Z,97641.47
2023-01-07T19:15:19.465Z,97646.22
2023-01-07T19:17:45.936Z,97649.69
2023-01-07T19:20:15.072Z,97650.22
2023-01-07T19:22:41.678Z,97641.41
2023-01-07T19:25:08.338Z,97648.88
2023-01-07T19:27:34.815Z,97648.63
2023-01-07T19:30:01.358Z,97636.03
2023-01-07T19:32:29.716Z,97628.03
2023-01-07T19:34:56.203Z,97628.59
2023-01-07T19:37:22.856Z,97626.22
2023-01-07T19:39:49.311Z,97622.41
2023-01-07T19:42:15.774Z,97615.13
2023-01-07T19:44:42.236Z,97609.00
2023-01-07T19:47:09.331Z,97600.72
2023-01-07T19:49:36.282Z,97597.75
2023-01-07T19:52:02.758Z,97584.91
2023-01-07T19:54:29.239Z,97581.19
2023-01-07T19:56:55.693Z,97572.66
2023-01-07T19:59:22.570Z,97577.72
2023-01-07T20:01:49.938Z,97574.78
2023-01-07T20:04:16.576Z,97564.59
2023-01-07T20:06:43.405Z,97560.84
2023-01-07T20:09:12.531Z,97563.75
2023-01-07T20:11:39.316Z,97553.38
2023-01-07T20:14:07.045Z,97544.28
2023-01-07T20:16:35.773Z,97525.84
2023-01-07T20:19:02.300Z,97530.31
2023-01-07T20:21:28.924Z,97528.22
2023-01-07T20:23:55.390Z,97521.53
2023-01-07T20:26:23.284Z,97537.53
2023-01-07T20:28:49.809Z,97533.31
2023-01-07T20:31:17.209Z,97529.63
2023-01-07T20:33:43.699Z,97537.16
2023-01-07T20:36:11.692Z,97538.47
2023-01-07T20:38:38.278Z,97531.47
2023-01-07T20:41:05.838Z,97535.00
2023-01-07T20:43:32.915Z,97537.88
2023-01-07T20:46:00.277Z,97540.13
2023-01-07T20:48:27.168Z,97540.78
2023-01-07T20:50:53.625Z,97534.00
2023-01-07T20:53:20.075Z,97533.03
2023-01-07T20:55:46.560Z,97531.88
2023-01-07T20:58:13.206Z,97538.34
2023-01-07T21:00:41.065Z,97534.97
2023-01-07T21:03:08.358Z,97535.41
2023-01-07T21:05:34.873Z,97530.75
2023-01-07T21:08:01.317Z,97520.75
2023-01-07T21:10:27.767Z,97515.31
2023-01-07T21:12:54.209Z,97506.44
2023-01-07T21:15:20.970Z,97503.75
2023-01-07T21:17:47.452Z,97509.03
2023-01-07T21:20:14.247Z,97509.53
2023-01-07T21:22:40.969Z,97500.91
2023-01-07T21:25:10.124Z,97506.34
2023-01-07T21:27:37.519Z,97505.53
2023-01-07T21:30:06.203Z,97507.63
2023-01-07T21:32:33.668Z,97498.13
2023-01-07T21:35:00.132Z,97498.94
2023-01-07T21:37:29.043Z,97508.41
2023-01-07T21:39:55.822Z,97499.41
2023-01-07T21:42:22.294Z,97492.97
2023-01-07T21:44:48.775Z,97493.28
2023-01-07T21:47:15.238Z,97490.00
2023-01-07T21:49:42.260Z,97493.97
2023-01-07T21:52:09.203Z,97493.78
2023-01-07T21:54:35.830Z,97490.59
2023-01-07T21:57:02.339Z,97481.47
2023-01-07T21:59:28.788Z,97483.88
2023-01-07T22:01:55.630Z,97481.09
2023-01-07T22:04:22.308Z,97479.78
2023-01-07T22:06:48.875Z,97473.47
2023-01-07T22:09:15.428Z,97478.41
2023-01-07T22:11:42.305Z,97477.63
2023-01-07T22:14:12.579Z,97487.53
2023-01-07T22:16:39.099Z,97480.41
2023-01-07T22:19:05.729Z,97478.81
2023-01-07T22:21:32.293Z,97485.25
2023-01-07T22:23:58.797Z,97488.22
2023-01-07T22:26:25.265Z,97482.38
2023-01-07T22:28:53.515Z,97468.72
2023-01-07T22:31:27.485Z,97462.09
2023-01-07T22:33:53.888Z,97463.28
2023-01-07T22:37:08.489Z,97477.03
2023-01-07T22:39:37.584Z,97479.00
2023-01-07T22:42:15.027Z,97478.59
2023-01-07T22:44:45.354Z,97472.28
2023-01-07T22:47:13.306Z,97477.03
2023-01-07T22:49:39.770Z,97470.41
2023-01-07T22:52:06.223Z,97465.84
2023-01-07T22:54:32.672Z,97460.91
2023-01-07T22:56:59.127Z,97454.47
2023-01-07T22:59:25.632Z,97457.41
2023-01-07T23:01:52.107Z,97452.19
2023-01-07T23:04:18.621Z,97451.97
2023-01-07T23:06:45.207Z,97447.88
2023-01-07T23:09:11.682Z,97451.66
2023-01-07T23:11:56.919Z,97444.72
2023-01-07T23:14:23.426Z,97436.41
2023-01-07T23:16:50.095Z,97425.19
2023-01-07T23:19:16.847Z,97425.38
2023-01-07T23:21:43.724Z,97420.63
2023-01-07T23:24:10.672Z,97421.72
2023-01-07T23:26:37.169Z,97418.28
2023-01-07T23:29:03.609Z,97423.94
2023-01-07T23:31:30.196Z,97420.75
2023-01-07T23:33:56.655Z,97413.03
2023-01-07T23:36:23.128Z,97411.16
2023-01-07T23:38:49.639Z,97411.66
2023-01-07T23:41:16.167Z,97413.81
2023-01-07T23:43:42.619Z,97408.00
2023-01-07T23:46:09.173Z,97412.06
2023-01-07T23:48:36.311Z,97403.81
2023-01-07T23:51:12.709Z,97400.69
2023-01-07T23:53:39.263Z,97389.00
2023-01-07T23:56:06.014Z,97397.59
2023-01-07T23:58:32.475Z,97386.44
